Time;durP1;ratioP1;P1;durP2;ratioP2;P2;SDS_P1;SDS_P2;PMS_P1;PMS_P2;Temp;Humidity;BMP_temperature;BMP_pressure;BME280_temperature;BME280_humidity;BME280_pressure;Samples;Min_cycle;Max_cycle;Signal;HPM_P1;HPM_P2
2022/11/13 00:02:26;;;;;;;2.28;1.60;;;19.40;77.70;;;;;;6153724;23;45193;-69
2022/11/13 00:04:53;;;;;;;2.00;1.80;;;19.40;77.70;;;;;;6153128;23;45294;-68
2022/11/13 00:07:20;;;;;;;2.00;1.48;;;19.40;77.70;;;;;;6152692;23;46993;-69
2022/11/13 00:09:47;;;;;;;1.70;1.40;;;19.40;77.70;;;;;;6153210;23;45744;-70
2022/11/13 00:12:14;;;;;;;2.15;1.58;;;19.40;77.70;;;;;;6153208;23;45183;-69
2022/11/13 00:14:41;;;;;;;3.17;1.95;;;19.40;77.70;;;;;;6153509;23;45436;-69
2022/11/13 00:17:07;;;;;;;2.40;1.48;;;19.40;77.70;;;;;;6151667;23;47719;-68
2022/11/13 00:19:36;;;;;;;1.98;1.45;;;19.40;77.70;;;;;;6153334;23;45241;-69
2022/11/13 00:22:03;;;;;;;2.20;1.70;;;19.40;77.70;;;;;;6152110;23;45254;-68
2022/11/13 00:24:29;;;;;;;2.22;1.63;;;19.40;77.70;;;;;;6153110;23;45480;-69
2022/11/13 00:26:57;;;;;;;1.83;1.27;;;19.40;77.70;;;;;;6152468;23;47218;-69
2022/11/13 00:29:23;;;;;;;2.00;1.50;;;19.40;77.70;;;;;;6152629;23;45283;-69
2022/11/13 00:31:50;;;;;;;1.92;1.50;;;19.40;77.70;;;;;;6153365;23;45285;-68
2022/11/13 00:34:17;;;;;;;2.25;1.50;;;19.40;77.60;;;;;;6152646;23;45587;-68
2022/11/13 00:36:45;;;;;;;2.28;1.63;;;19.40;77.70;;;;;;6152883;23;45392;-68
2022/11/13 00:39:12;;;;;;;2.20;1.70;;;19.40;77.00;;;;;;6152904;23;45289;-69
2022/11/13 00:41:38;;;;;;;1.70;1.40;;;19.40;77.70;;;;;;6153034;23;45337;-69
2022/11/13 00:44:05;;;;;;;2.00;1.33;;;19.40;77.70;;;;;;6153312;23;45323;-69
2022/11/13 00:46:32;;;;;;;1.70;1.38;;;19.40;77.70;;;;;;6152166;23;47158;-68
2022/11/13 00:49:01;;;;;;;1.80;1.50;;;19.40;77.70;;;;;;6153296;23;45222;-69
2022/11/13 00:51:28;;;;;;;1.75;1.38;;;19.40;77.70;;;;;;6153057;23;45269;-69
2022/11/13 00:53:56;;;;;;;1.90;1.40;;;19.40;77.70;;;;;;6153177;23;45255;-68
2022/11/13 00:56:23;;;;;;;2.15;1.38;;;19.40;77.70;;;;;;6151952;23;47533;-69
2022/11/13 00:58:50;;;;;;;2.00;1.50;;;19.40;77.70;;;;;;6152744;23;45212;-69
2022/11/13 01:01:19;;;;;;;2.13;1.45;;;19.40;77.70;;;;;;6153058;23;45152;-68
2022/11/13 01:03:45;;;;;;;1.77;1.27;;;19.40;77.70;;;;;;6152798;23;45312;-68
2022/11/13 01:06:14;;;;;;;2.42;1.55;;;19.40;77.70;;;;;;6152192;23;46610;-69
2022/11/13 01:08:42;;;;;;;2.08;1.50;;;19.40;77.70;;;;;;6153093;23;45191;-68
2022/11/13 01:11:11;;;;;;;2.03;1.35;;;19.40;77.70;;;;;;6152420;23;45244;-69
2022/11/13 01:13:38;;;;;;;1.77;1.42;;;19.40;77.70;;;;;;6153436;23;45205;-68
2022/11/13 01:16:06;;;;;;;2.45;1.60;;;19.40;77.70;;;;;;6151655;23;46295;-68
2022/11/13 01:18:34;;;;;;;2.95;1.80;;;19.40;77.50;;;;;;6153412;23;45235;-68
2022/11/13 01:21:05;;;;;;;1.33;1.23;;;19.40;77.50;;;;;;6152101;23;45222;-69
2022/11/13 01:23:32;;;;;;;1.75;1.23;;;19.40;77.40;;;;;;6153000;23;45233;-69
2022/11/13 01:26:06;;;;;;;1.60;1.50;;;19.40;77.30;;;;;;6151889;23;46373;-68
2022/11/13 01:28:34;;;;;;;1.98;1.35;;;19.40;77.30;;;;;;6152325;23;45599;-68
2022/11/13 01:31:04;;;;;;;1.50;1.23;;;19.40;77.30;;;;;;6153118;23;45257;-69
2022/11/13 01:33:30;;;;;;;2.42;1.60;;;19.40;77.20;;;;;;6152652;23;45186;-69
2022/11/13 01:36:01;;;;;;;2.17;1.30;;;19.40;77.10;;;;;;6152257;23;46503;-68
2022/11/13 01:38:28;;;;;;;2.03;1.55;;;19.40;77.00;;;;;;6152830;23;45896;-69
2022/11/13 01:40:56;;;;;;;2.17;1.30;;;19.40;77.10;;;;;;6152943;23;45215;-68
2022/11/13 01:43:25;;;;;;;1.73;1.42;;;19.40;77.00;;;;;;6153670;23;45339;-68
2022/11/13 01:46:19;;;;;;;1.58;1.30;;;19.40;78.20;;;;;;6151424;23;46556;-69
2022/11/13 01:48:50;;;;;;;1.67;1.35;;;19.40;77.10;;;;;;6125487;23;45385;-69
2022/11/13 01:51:24;;;;;;;2.05;1.50;;;19.40;77.60;;;;;;6152479;23;45292;-68
2022/11/13 01:53:51;;;;;;;1.65;1.23;;;19.40;77.60;;;;;;6153510;23;45237;-68
2022/11/13 01:56:18;;;;;;;1.92;1.45;;;19.40;77.00;;;;;;6151768;23;47163;-68
2022/11/13 01:58:49;;;;;;;2.05;1.50;;;19.40;77.30;;;;;;6152279;23;45296;-68
2022/11/13 02:01:15;;;;;;;2.00;1.30;;;19.40;77.30;;;;;;6153375;23;45166;-69
2022/11/13 02:03:44;;;;;;;2.08;1.50;;;19.40;77.30;;;;;;6152184;23;45320;-70
2022/11/13 02:06:12;;;;;;;1.60;1.40;;;19.40;77.60;;;;;;6151915;23;46765;-69
2022/11/13 02:08:39;;;;;;;2.08;1.40;;;19.40;77.50;;;;;;6152409;23;45175;-68
2022/11/13 02:11:06;;;;;;;2.38;1.33;;;19.40;77.10;;;;;;6152348;23;45302;-68
2022/11/13 02:13:33;;;;;;;2.47;1.60;;;19.40;77.00;;;;;;6152824;23;45380;-69
2022/11/13 02:16:01;;;;;;;2.05;1.48;;;19.40;76.80;;;;;;6151402;23;48298;-68
2022/11/13 02:18:30;;;;;;;2.17;1.58;;;19.40;76.80;;;;;;6152730;23;45194;-68
2022/11/13 02:21:08;;;;;;;1.60;1.30;;;19.40;76.80;;;;;;6151285;23;45330;-69
2022/11/13 02:23:43;;;;;;;1.70;1.35;;;19.40;76.70;;;;;;6152650;23;45353;-69
2022/11/13 02:26:12;;;;;;;1.85;1.42;;;19.40;76.80;;;;;;6151984;23;47090;-69
2022/11/13 02:28:39;;;;;;;1.67;1.33;;;19.40;76.70;;;;;;6152255;23;45305;-69
2022/11/13 02:31:08;;;;;;;1.88;1.58;;;19.40;76.50;;;;;;6152569;23;45247;-69
2022/11/13 02:33:35;;;;;;;2.25;1.50;;;19.40;76.60;;;;;;6152456;23;45308;-69
2022/11/13 02:36:03;;;;;;;3.53;1.42;;;19.40;76.40;;;;;;6151877;23;46569;-69
2022/11/13 02:38:32;;;;;;;1.60;1.30;;;19.40;76.40;;;;;;6152023;23;45369;-69
2022/11/13 02:40:58;;;;;;;1.52;1.20;;;19.40;76.30;;;;;;6152494;23;45437;-69
2022/11/13 02:43:26;;;;;;;2.38;1.50;;;19.40;76.40;;;;;;6152418;23;45197;-69
2022/11/13 02:45:53;;;;;;;2.47;1.30;;;19.40;76.60;;;;;;6150896;23;47463;-69
2022/11/13 02:48:20;;;;;;;2.10;1.15;;;19.40;76.60;;;;;;6152378;23;45222;-69
2022/11/13 02:50:47;;;;;;;2.13;1.45;;;19.40;76.60;;;;;;6153356;23;45122;-69
2022/11/13 02:53:14;;;;;;;2.20;1.48;;;19.40;76.60;;;;;;6154338;23;45486;-69
2022/11/13 02:55:41;;;;;;;1.58;1.35;;;19.40;76.50;;;;;;6153175;23;45441;-69
2022/11/13 02:58:08;;;;;;;1.80;1.33;;;19.40;76.60;;;;;;6153337;23;45369;-69
2022/11/13 03:00:36;;;;;;;1.65;1.40;;;19.40;76.70;;;;;;6153570;23;45373;-68
2022/11/13 03:03:03;;;;;;;2.20;1.50;;;19.40;76.60;;;;;;6152884;23;45198;-69
2022/11/13 03:05:30;;;;;;;1.90;1.40;;;19.40;76.60;;;;;;6153803;23;46409;-69
2022/11/13 03:07:57;;;;;;;1.83;1.27;;;19.40;76.60;;;;;;6152729;23;45409;-69
2022/11/13 03:10:23;;;;;;;1.88;1.38;;;19.40;76.30;;;;;;6153784;23;45350;-69
2022/11/13 03:12:50;;;;;;;1.52;1.20;;;19.40;76.40;;;;;;6152237;23;45270;-69
2022/11/13 03:15:17;;;;;;;1.60;1.20;;;19.40;76.30;;;;;;6152725;23;48201;-69
2022/11/13 03:17:45;;;;;;;1.75;1.50;;;19.40;76.10;;;;;;6152802;23;45395;-69
2022/11/13 03:20:13;;;;;;;1.52;1.27;;;19.40;76.30;;;;;;6152887;23;45473;-69
2022/11/13 03:22:40;;;;;;;2.20;1.55;;;19.40;76.10;;;;;;6153043;23;45289;-69
2022/11/13 03:25:07;;;;;;;1.67;1.35;;;19.40;76.10;;;;;;6152903;23;46231;-69
2022/11/13 03:27:34;;;;;;;1.75;1.30;;;19.30;75.90;;;;;;6152586;23;45314;-69
2022/11/13 03:30:01;;;;;;;1.70;1.20;;;19.30;75.80;;;;;;6153716;23;45365;-69
2022/11/13 03:32:28;;;;;;;1.33;1.20;;;19.30;75.90;;;;;;6153424;23;45465;-69
2022/11/13 03:34:56;;;;;;;1.48;1.20;;;19.30;75.70;;;;;;6153464;23;45270;-69
2022/11/13 03:37:22;;;;;;;1.38;1.20;;;19.30;75.70;;;;;;6152198;23;45218;-69
2022/11/13 03:39:49;;;;;;;1.50;1.20;;;19.30;75.60;;;;;;6153498;23;45392;-69
2022/11/13 03:42:16;;;;;;;1.60;1.15;;;19.30;75.60;;;;;;6153587;23;45286;-69
2022/11/13 03:44:43;;;;;;;1.45;1.08;;;19.30;75.90;;;;;;6153153;23;47600;-69
2022/11/13 03:47:10;;;;;;;1.40;1.20;;;19.30;76.00;;;;;;6152994;23;45172;-69
2022/11/13 03:49:36;;;;;;;1.40;1.00;;;19.30;76.10;;;;;;6153210;23;45334;-69
2022/11/13 03:52:05;;;;;;;1.33;1.00;;;19.30;76.10;;;;;;6153046;23;45489;-69
2022/11/13 03:54:31;;;;;;;1.70;1.30;;;19.30;76.10;;;;;;6152734;23;47103;-69
2022/11/13 03:56:58;;;;;;;1.38;1.20;;;19.30;76.00;;;;;;6152717;23;45281;-69
2022/11/13 03:59:25;;;;;;;1.50;1.13;;;19.30;76.10;;;;;;6153258;23;45305;-69
2022/11/13 04:01:52;;;;;;;1.65;1.05;;;19.40;76.10;;;;;;6153366;23;45336;-69
2022/11/13 04:04:18;;;;;;;1.63;1.27;;;19.30;76.20;;;;;;6153310;23;46391;-69
2022/11/13 04:06:45;;;;;;;1.25;1.13;;;19.30;76.20;;;;;;6152549;23;45382;-69
2022/11/13 04:09:14;;;;;;;1.10;1.00;;;19.30;76.10;;;;;;6153680;23;45213;-69
2022/11/13 04:11:43;;;;;;;1.85;1.13;;;19.30;76.10;;;;;;6153493;23;45560;-69
2022/11/13 04:14:10;;;;;;;1.85;1.10;;;19.30;75.90;;;;;;6153052;23;46413;-69
2022/11/13 04:16:37;;;;;;;1.45;1.35;;;19.30;75.90;;;;;;6152840;23;46356;-69
2022/11/13 04:19:04;;;;;;;1.55;1.00;;;19.30;75.90;;;;;;6153630;23;45280;-69
2022/11/13 04:21:31;;;;;;;2.25;1.20;;;19.30;75.70;;;;;;6152589;23;45289;-69
2022/11/13 04:23:57;;;;;;;1.33;1.10;;;19.30;75.80;;;;;;6152925;23;47117;-69
2022/11/13 04:26:26;;;;;;;1.23;0.90;;;19.30;75.70;;;;;;6152543;23;45213;-69
2022/11/13 04:28:52;;;;;;;2.15;1.30;;;19.30;75.70;;;;;;6153371;23;45234;-69
2022/11/13 04:31:20;;;;;;;1.33;0.95;;;19.30;75.50;;;;;;6152915;23;45368;-69
2022/11/13 04:33:46;;;;;;;1.60;1.10;;;19.30;75.60;;;;;;6153090;23;48057;-69
2022/11/13 04:36:13;;;;;;;1.20;1.10;;;19.30;75.30;;;;;;6152368;23;45361;-69
2022/11/13 04:38:40;;;;;;;1.17;1.08;;;19.30;75.30;;;;;;6153571;23;45274;-69
2022/11/13 04:43:52;;;;;;;1.20;1.00;;;19.30;75.60;;;;;;6153063;23;45367;-69
2022/11/13 04:46:19;;;;;;;1.30;1.20;;;19.30;75.70;;;;;;6152528;23;45309;-69
2022/11/13 04:48:46;;;;;;;1.63;1.30;;;19.30;75.80;;;;;;6151869;23;45293;-69
2022/11/13 04:51:13;;;;;;;1.33;1.17;;;19.30;75.50;;;;;;6152549;23;45408;-69
2022/11/13 04:53:40;;;;;;;1.10;1.00;;;19.30;75.90;;;;;;6151772;23;45198;-69
2022/11/13 04:56:07;;;;;;;1.42;1.30;;;19.30;75.70;;;;;;6151851;23;45281;-69
2022/11/13 04:58:33;;;;;;;1.65;1.17;;;19.30;75.70;;;;;;6152337;23;45394;-69
2022/11/13 05:01:02;;;;;;;2.03;1.30;;;19.30;75.60;;;;;;6151721;23;45404;-69
2022/11/13 05:03:29;;;;;;;1.30;1.20;;;19.30;75.40;;;;;;6151937;23;46541;-69
2022/11/13 05:06:02;;;;;;;1.55;1.20;;;19.30;75.60;;;;;;6151206;23;45437;-69
2022/11/13 05:08:29;;;;;;;1.40;1.00;;;19.30;76.70;;;;;;6153404;23;45175;-69
2022/11/13 05:10:55;;;;;;;1.10;1.00;;;19.30;75.60;;;;;;6151847;23;45520;-69
2022/11/13 05:13:22;;;;;;;1.33;1.20;;;19.30;75.30;;;;;;6151583;23;47485;-69
2022/11/13 05:15:49;;;;;;;1.50;1.00;;;19.30;75.10;;;;;;6151661;23;45277;-69
2022/11/13 05:18:17;;;;;;;1.10;1.00;;;19.30;75.10;;;;;;6151017;23;45299;-69
2022/11/13 05:20:44;;;;;;;1.23;1.00;;;19.30;75.00;;;;;;6152058;23;45492;-69
2022/11/13 05:23:11;;;;;;;1.63;1.10;;;19.30;74.90;;;;;;6149890;23;46226;-69
2022/11/13 05:25:37;;;;;;;1.23;0.98;;;19.30;75.00;;;;;;6151697;23;45321;-69
2022/11/13 05:28:04;;;;;;;1.50;1.20;;;19.30;74.80;;;;;;6151717;23;45479;-69
2022/11/13 05:30:31;;;;;;;1.10;1.00;;;19.30;74.70;;;;;;6151513;23;45466;-69
2022/11/13 05:32:58;;;;;;;1.33;1.20;;;19.30;74.50;;;;;;6151941;23;47502;-69
2022/11/13 05:35:26;;;;;;;1.63;1.20;;;19.30;74.70;;;;;;6150881;23;45194;-69
2022/11/13 05:37:53;;;;;;;1.40;1.00;;;19.30;74.50;;;;;;6151435;23;45381;-69
2022/11/13 05:40:19;;;;;;;1.48;0.90;;;19.30;74.50;;;;;;6151571;23;45277;-69
2022/11/13 05:42:46;;;;;;;1.75;0.90;;;19.30;74.50;;;;;;6151680;23;47476;-69
2022/11/13 05:45:13;;;;;;;1.58;1.00;;;19.30;74.70;;;;;;6151629;23;45446;-69
2022/11/13 05:47:40;;;;;;;2.33;1.30;;;19.30;74.90;;;;;;6150991;23;45348;-69
2022/11/13 05:50:07;;;;;;;1.15;0.98;;;19.30;74.80;;;;;;6152083;23;45318;-69
2022/11/13 05:52:35;;;;;;;1.00;0.90;;;19.30;75.10;;;;;;6151109;23;47102;-69
2022/11/13 05:55:02;;;;;;;1.00;0.90;;;19.30;75.10;;;;;;6151950;23;46098;-69
2022/11/13 05:57:30;;;;;;;1.10;1.00;;;19.30;74.90;;;;;;6151499;23;45231;-69
2022/11/13 05:59:57;;;;;;;1.10;1.00;;;19.30;74.90;;;;;;6152589;23;45441;-69
2022/11/13 06:02:24;;;;;;;1.60;1.17;;;19.30;74.90;;;;;;6151810;23;47045;-69
2022/11/13 06:04:50;;;;;;;1.30;1.00;;;19.30;74.80;;;;;;6151129;23;45425;-69
2022/11/13 06:07:17;;;;;;;1.30;1.10;;;19.30;74.70;;;;;;6151425;23;45302;-69
2022/11/13 06:09:45;;;;;;;1.48;1.13;;;19.30;74.70;;;;;;6152100;23;45405;-69
2022/11/13 06:12:12;;;;;;;1.30;1.08;;;19.30;74.30;;;;;;6152869;23;46577;-69
2022/11/13 06:14:39;;;;;;;1.02;0.90;;;19.30;74.40;;;;;;6152704;23;45277;-69
2022/11/13 06:17:06;;;;;;;1.10;1.00;;;19.30;74.20;;;;;;6152306;23;45308;-69
2022/11/13 06:19:33;;;;;;;1.83;1.00;;;19.30;74.20;;;;;;6151703;23;45403;-69
2022/11/13 06:22:00;;;;;;;1.45;1.10;;;19.30;74.30;;;;;;6148671;23;47204;-69
2022/11/13 06:24:27;;;;;;;1.52;1.17;;;19.30;74.10;;;;;;6153889;23;45233;-69
2022/11/13 06:26:55;;;;;;;1.65;1.20;;;19.30;74.00;;;;;;6153613;23;45400;-69
2022/11/13 06:29:22;;;;;;;1.20;1.10;;;19.30;73.90;;;;;;6153779;23;45231;-69
2022/11/13 06:31:48;;;;;;;1.52;1.08;;;19.30;74.00;;;;;;6152769;23;47009;-69
2022/11/13 06:34:15;;;;;;;1.35;1.17;;;19.30;73.90;;;;;;6151949;23;45217;-69
2022/11/13 06:36:42;;;;;;;1.42;1.05;;;19.30;73.90;;;;;;6151946;23;45278;-69
2022/11/13 06:39:10;;;;;;;1.20;1.05;;;19.20;73.70;;;;;;6153441;23;45366;-69
2022/11/13 06:41:38;;;;;;;1.75;1.25;;;19.30;73.80;;;;;;6153887;23;46443;-69
2022/11/13 06:44:06;;;;;;;1.40;1.10;;;19.30;74.00;;;;;;6153682;23;45201;-69
2022/11/13 06:46:33;;;;;;;1.50;1.23;;;19.30;74.00;;;;;;6153854;23;45416;-69
2022/11/13 06:49:00;;;;;;;1.05;0.98;;;19.30;74.20;;;;;;6154180;23;45526;-69
2022/11/13 06:51:29;;;;;;;1.10;1.00;;;19.30;74.30;;;;;;6153260;23;47176;-69
2022/11/13 06:53:56;;;;;;;1.33;1.10;;;19.30;74.30;;;;;;6153499;23;45182;-69
2022/11/13 06:56:24;;;;;;;1.10;1.00;;;19.30;74.30;;;;;;6153129;23;45349;-69
2022/11/13 06:58:50;;;;;;;2.50;1.20;;;19.30;74.20;;;;;;6152672;23;45402;-69
2022/11/13 07:01:20;;;;;;;1.15;1.05;;;19.30;74.00;;;;;;6153549;23;46297;-69
2022/11/13 07:03:48;;;;;;;1.83;1.13;;;19.30;74.10;;;;;;6151903;23;45331;-69
2022/11/13 07:06:16;;;;;;;1.13;0.90;;;19.30;74.00;;;;;;6152264;23;45280;-70
2022/11/13 07:08:43;;;;;;;1.80;1.13;;;19.30;73.90;;;;;;6152957;23;45356;-69
2022/11/13 07:11:12;;;;;;;1.00;0.90;;;19.30;73.60;;;;;;6153019;23;46540;-69
2022/11/13 07:13:39;;;;;;;1.20;1.10;;;19.30;73.50;;;;;;6153415;23;45728;-69
2022/11/13 07:16:08;;;;;;;1.35;1.15;;;19.30;73.20;;;;;;6151127;23;45360;-70
2022/11/13 07:18:36;;;;;;;2.40;1.38;;;19.30;73.20;;;;;;6152024;23;45281;-68
2022/11/13 07:21:07;;;;;;;2.97;1.00;;;19.30;72.90;;;;;;6151694;23;46491;-69
2022/11/13 07:23:35;;;;;;;1.83;1.23;;;19.30;73.20;;;;;;6152117;23;45201;-69
2022/11/13 07:26:02;;;;;;;3.10;1.40;;;19.30;73.30;;;;;;6151815;23;45388;-69
2022/11/13 07:28:29;;;;;;;1.77;1.30;;;19.30;73.30;;;;;;6151496;23;45392;-69
2022/11/13 07:30:58;;;;;;;1.33;0.90;;;19.20;73.10;;;;;;6152232;23;47236;-69
2022/11/13 07:33:25;;;;;;;1.42;1.08;;;19.30;73.30;;;;;;6149919;23;45333;-69
2022/11/13 07:35:55;;;;;;;1.50;1.08;;;19.30;73.10;;;;;;6151365;23;45302;-69
2022/11/13 07:38:22;;;;;;;1.55;1.20;;;19.30;73.10;;;;;;6151867;23;45269;-69
2022/11/13 07:40:49;;;;;;;1.75;1.20;;;19.30;72.80;;;;;;6151929;23;46306;-69
2022/11/13 07:43:16;;;;;;;1.20;1.00;;;19.30;72.90;;;;;;6152659;23;45383;-69
2022/11/13 07:45:43;;;;;;;2.65;1.30;;;19.30;73.10;;;;;;6151949;23;45486;-69
2022/11/13 07:48:10;;;;;;;1.58;1.38;;;19.30;72.90;;;;;;6151902;23;45214;-69
2022/11/13 07:50:38;;;;;;;1.50;1.20;;;19.30;72.90;;;;;;6150495;23;46064;-69
2022/11/13 07:53:08;;;;;;;1.48;1.23;;;19.30;72.80;;;;;;6151850;23;45227;-69
2022/11/13 07:55:36;;;;;;;1.38;1.15;;;19.30;72.70;;;;;;6151642;23;45267;-69
2022/11/13 07:58:03;;;;;;;1.67;1.30;;;19.30;72.60;;;;;;6150847;23;45265;-69
2022/11/13 08:00:33;;;;;;;1.40;1.30;;;19.30;72.50;;;;;;6151218;23;45147;-69
2022/11/13 08:03:04;;;;;;;2.65;1.65;;;19.20;72.50;;;;;;6150332;23;45484;-69
2022/11/13 08:05:31;;;;;;;1.67;1.30;;;19.30;72.40;;;;;;6151891;23;45395;-69
2022/11/13 08:07:58;;;;;;;1.60;1.15;;;19.30;72.50;;;;;;6151598;23;45284;-68
2022/11/13 08:10:26;;;;;;;1.38;1.27;;;19.20;72.00;;;;;;6150776;23;45245;-69
2022/11/13 08:12:59;;;;;;;2.05;1.40;;;19.30;72.10;;;;;;6151960;23;45259;-68
2022/11/13 08:15:26;;;;;;;1.40;1.30;;;19.20;72.10;;;;;;6151288;23;45282;-68
2022/11/13 08:17:56;;;;;;;1.83;1.45;;;19.20;72.00;;;;;;6151888;23;45427;-69
2022/11/13 08:20:24;;;;;;;1.20;1.02;;;19.20;72.10;;;;;;6151294;23;47498;-69
2022/11/13 08:22:51;;;;;;;1.65;1.17;;;19.20;71.80;;;;;;6151326;23;45301;-69
2022/11/13 08:25:19;;;;;;;1.15;1.00;;;19.20;71.80;;;;;;6151182;23;45310;-69
2022/11/13 08:27:47;;;;;;;1.70;1.08;;;19.20;71.90;;;;;;6150381;23;45373;-69
2022/11/13 08:30:15;;;;;;;0.93;0.90;;;19.20;71.80;;;;;;6152196;23;46267;-69
2022/11/13 08:32:41;;;;;;;1.55;1.10;;;19.20;71.60;;;;;;6150100;23;45337;-68
2022/11/13 08:35:09;;;;;;;2.20;1.33;;;19.20;71.70;;;;;;6151411;23;45270;-69
2022/11/13 08:37:37;;;;;;;1.20;1.08;;;19.20;71.40;;;;;;6150969;23;45201;-69
2022/11/13 08:40:05;;;;;;;1.08;0.98;;;19.20;72.50;;;;;;6151803;23;48058;-69
2022/11/13 08:42:31;;;;;;;1.48;1.10;;;19.30;71.60;;;;;;6150321;23;45317;-69
2022/11/13 08:45:00;;;;;;;1.10;0.98;;;19.20;71.40;;;;;;6150852;23;45374;-69
2022/11/13 08:47:28;;;;;;;1.13;1.02;;;19.30;71.40;;;;;;6150458;23;45415;-69
2022/11/13 08:49:55;;;;;;;1.20;0.90;;;19.30;71.40;;;;;;6151532;23;45248;-69
2022/11/13 08:52:22;;;;;;;1.33;1.10;;;19.30;71.20;;;;;;6150982;23;45380;-69
2022/11/13 08:54:48;;;;;;;1.48;1.10;;;19.30;71.20;;;;;;6152163;23;45344;-70
2022/11/13 08:57:16;;;;;;;1.08;0.98;;;19.30;71.20;;;;;;6150880;23;45206;-69
2022/11/13 08:59:42;;;;;;;1.20;1.08;;;19.30;71.20;;;;;;6151562;23;48242;-69
2022/11/13 09:02:13;;;;;;;1.92;0.90;;;19.30;71.20;;;;;;6151335;23;45434;-69
2022/11/13 09:04:40;;;;;;;1.67;1.13;;;19.30;71.20;;;;;;6149745;23;45210;-69
2022/11/13 09:07:07;;;;;;;1.00;0.90;;;19.30;71.10;;;;;;6151314;23;45672;-69
2022/11/13 09:09:34;;;;;;;1.25;0.95;;;19.30;70.80;;;;;;6150427;23;46292;-68
2022/11/13 09:12:01;;;;;;;1.40;0.98;;;19.30;70.50;;;;;;6151115;23;45309;-69
2022/11/13 09:14:28;;;;;;;1.42;1.00;;;19.30;70.70;;;;;;6148671;23;45642;-69
2022/11/13 09:16:55;;;;;;;2.00;0.88;;;19.30;70.70;;;;;;6150374;23;45552;-69
2022/11/13 09:19:23;;;;;;;1.83;1.02;;;19.30;70.80;;;;;;6151875;23;45335;-69
2022/11/13 09:21:51;;;;;;;0.88;0.80;;;19.30;70.60;;;;;;6151235;23;45278;-69
2022/11/13 09:24:18;;;;;;;1.02;0.90;;;19.30;70.80;;;;;;6151624;23;45231;-68
2022/11/13 09:26:44;;;;;;;1.10;1.00;;;19.30;70.80;;;;;;6150760;23;45290;-68
2022/11/13 09:29:11;;;;;;;0.98;0.90;;;19.30;70.60;;;;;;6149312;23;47506;-69
2022/11/13 09:31:39;;;;;;;1.25;0.90;;;19.30;70.70;;;;;;6151912;23;45270;-69
2022/11/13 09:34:06;;;;;;;1.23;0.95;;;19.30;70.60;;;;;;6151418;23;45286;-69
2022/11/13 09:36:35;;;;;;;1.77;1.00;;;19.30;70.50;;;;;;6151134;23;45305;-69
2022/11/13 09:39:01;;;;;;;1.10;0.93;;;19.30;70.70;;;;;;6151484;23;46290;-69
2022/11/13 09:41:33;;;;;;;1.40;0.80;;;19.30;68.10;;;;;;6152176;23;45295;-69
2022/11/13 09:44:02;;;;;;;1.30;1.02;;;19.30;68.20;;;;;;6152345;23;45248;-69
2022/11/13 09:46:36;;;;;;;1.20;0.98;;;19.30;68.20;;;;;;6151425;23;45222;-69
2022/11/13 09:49:12;;;;;;;1.00;0.90;;;19.30;67.00;;;;;;6151710;23;47434;-69
2022/11/13 09:51:42;;;;;;;1.10;0.93;;;19.30;65.60;;;;;;6151253;23;45277;-69
2022/11/13 09:54:13;;;;;;;1.35;1.00;;;19.30;64.70;;;;;;6152200;23;45250;-68
2022/11/13 09:56:43;;;;;;;0.98;0.80;;;19.30;64.50;;;;;;6150580;23;45425;-69
2022/11/13 09:59:21;;;;;;;1.20;0.93;;;19.30;64.70;;;;;;6150907;23;48611;-69
2022/11/13 10:01:55;;;;;;;1.88;1.10;;;19.30;65.50;;;;;;6150878;23;45234;-69
2022/11/13 10:04:31;;;;;;;1.65;1.10;;;19.30;65.70;;;;;;6152532;23;45248;-70
2022/11/13 10:07:08;;;;;;;1.58;0.85;;;19.30;66.10;;;;;;6150681;23;45429;-69
2022/11/13 10:09:55;;;;;;;1.33;0.95;;;19.30;66.30;;;;;;6151892;23;45297;-69
2022/11/13 10:12:22;;;;;;;1.08;0.98;;;19.30;64.20;;;;;;6151298;23;45273;-69
2022/11/13 10:14:52;;;;;;;1.20;1.05;;;19.30;64.10;;;;;;6150892;23;45445;-69
2022/11/13 10:17:24;;;;;;;3.35;1.13;;;19.30;66.10;;;;;;6150696;23;45430;-69
2022/11/13 10:19:56;;;;;;;1.90;1.10;;;19.30;70.80;;;;;;6151603;23;45307;-69
2022/11/13 10:22:34;;;;;;;3.00;1.00;;;19.30;71.00;;;;;;6152599;23;45497;-69
2022/11/13 10:25:10;;;;;;;3.50;1.15;;;19.40;72.20;;;;;;6151976;23;45252;-69
2022/11/13 10:27:37;;;;;;;2.05;1.10;;;19.40;72.60;;;;;;6152652;23;45458;-69
2022/11/13 10:30:12;;;;;;;4.85;1.08;;;19.50;73.30;;;;;;6150561;23;46219;-69
2022/11/13 10:32:39;;;;;;;4.55;1.17;;;19.50;73.40;;;;;;6151519;23;45307;-69
2022/11/13 10:35:23;;;;;;;2.90;1.10;;;19.50;74.20;;;;;;6152100;23;45402;-69
2022/11/13 10:37:59;;;;;;;4.47;1.02;;;19.50;74.30;;;;;;6151735;23;45282;-69
2022/11/13 10:40:28;;;;;;;2.63;0.80;;;19.50;74.50;;;;;;6149710;23;47063;-69
2022/11/13 10:43:04;;;;;;;4.80;1.33;;;19.50;73.90;;;;;;6149924;23;45328;-69
2022/11/13 10:45:30;;;;;;;1.60;0.80;;;19.50;73.50;;;;;;6151527;23;45250;-68
2022/11/13 10:47:57;;;;;;;49.08;5.90;;;19.50;73.10;;;;;;6151354;23;45246;-68
2022/11/13 10:50:26;;;;;;;18.05;2.30;;;19.60;75.10;;;;;;6150750;23;48220;-68
2022/11/13 10:52:55;;;;;;;10.00;1.95;;;19.60;73.80;;;;;;6151152;23;45406;-68
2022/11/13 10:55:27;;;;;;;9.57;1.77;;;19.60;73.10;;;;;;6150467;23;45378;-68
2022/11/13 10:57:59;;;;;;;4.75;1.50;;;19.60;72.80;;;;;;6150754;23;45253;-68
2022/11/13 11:00:30;;;;;;;2.35;1.15;;;19.60;72.60;;;;;;6150508;23;48041;-68
2022/11/13 11:02:57;;;;;;;5.68;1.50;;;19.60;72.30;;;;;;6150909;23;45282;-68
2022/11/13 11:05:26;;;;;;;4.82;1.40;;;19.60;72.00;;;;;;6149916;23;45399;-68
2022/11/13 11:07:56;;;;;;;5.93;1.13;;;19.60;71.90;;;;;;6150064;23;45221;-68
2022/11/13 11:10:29;;;;;;;7.70;1.25;;;19.60;71.50;;;;;;6151233;23;46257;-68
2022/11/13 11:12:59;;;;;;;3.25;0.88;;;19.60;71.40;;;;;;6151629;23;45736;-68
2022/11/13 11:15:32;;;;;;;2.50;1.10;;;19.60;71.20;;;;;;6152162;23;45353;-68
2022/11/13 11:18:02;;;;;;;2.60;1.10;;;19.60;70.70;;;;;;6152153;23;45444;-69
2022/11/13 11:20:41;;;;;;;2.40;1.02;;;19.60;70.00;;;;;;6151540;23;46336;-68
2022/11/13 11:23:19;;;;;;;1.90;1.17;;;19.60;69.80;;;;;;6151574;23;45730;-69
2022/11/13 11:25:54;;;;;;;4.07;1.48;;;19.60;69.90;;;;;;6152113;23;45406;-69
2022/11/13 11:28:29;;;;;;;4.63;1.27;;;19.60;70.10;;;;;;6150992;23;45269;-69
2022/11/13 11:31:04;;;;;;;4.22;1.20;;;19.60;69.20;;;;;;6149518;23;46563;-69
2022/11/13 11:33:35;;;;;;;1.33;0.93;;;19.60;68.50;;;;;;6151696;23;45155;-68
2022/11/13 11:36:08;;;;;;;2.75;0.90;;;19.60;68.40;;;;;;6150934;23;45290;-69
2022/11/13 11:38:48;;;;;;;2.13;1.00;;;19.60;68.20;;;;;;6150736;23;45343;-69
2022/11/13 11:41:19;;;;;;;1.95;0.77;;;19.60;68.40;;;;;;6151309;23;47329;-68
2022/11/13 11:43:49;;;;;;;0.85;0.70;;;19.60;67.70;;;;;;6152394;23;45305;-69
2022/11/13 11:46:21;;;;;;;1.23;0.80;;;19.60;67.30;;;;;;6151713;23;45324;-68
2022/11/13 11:48:48;;;;;;;0.95;0.68;;;19.70;67.00;;;;;;6151945;23;45393;-69
2022/11/13 11:51:24;;;;;;;1.50;0.67;;;19.70;67.30;;;;;;6150801;23;48049;-69
2022/11/13 11:54:01;;;;;;;1.60;0.70;;;19.70;66.60;;;;;;6151924;23;46197;-69
2022/11/13 11:56:34;;;;;;;2.33;0.70;;;19.70;66.50;;;;;;6151483;23;45290;-68
2022/11/13 11:59:16;;;;;;;1.58;0.80;;;19.70;66.40;;;;;;6151760;23;45296;-69
2022/11/13 12:01:57;;;;;;;1.17;0.80;;;19.70;66.40;;;;;;6151208;23;47244;-68
2022/11/13 12:04:52;;;;;;;1.57;0.67;;;19.70;66.50;;;;;;6151293;23;45304;-68
2022/11/13 12:07:32;;;;;;;0.85;0.60;;;19.80;66.60;;;;;;6151273;23;45322;-67
2022/11/13 12:10:09;;;;;;;1.27;0.80;;;19.80;66.80;;;;;;6152066;23;45235;-67
2022/11/13 12:12:52;;;;;;;1.58;0.63;;;19.80;67.00;;;;;;6152466;23;46296;-68
2022/11/13 12:15:26;;;;;;;1.27;0.63;;;19.80;67.20;;;;;;6151351;23;45227;-68
2022/11/13 12:18:03;;;;;;;2.05;0.95;;;19.80;66.70;;;;;;6152522;23;45293;-68
2022/11/13 12:20:36;;;;;;;1.67;0.93;;;19.80;67.20;;;;;;6151967;23;45290;-68
2022/11/13 12:23:15;;;;;;;1.55;1.00;;;19.80;67.50;;;;;;6152274;23;45213;-68
2022/11/13 12:25:49;;;;;;;1.52;0.85;;;19.80;67.10;;;;;;6151833;23;45611;-67
2022/11/13 12:28:21;;;;;;;4.43;2.72;;;19.80;67.10;;;;;;6150056;23;45761;-68
2022/11/13 12:30:59;;;;;;;3.65;2.15;;;19.80;66.90;;;;;;6146404;23;45337;-68
2022/11/13 12:33:37;;;;;;;3.03;1.98;;;19.80;66.70;;;;;;6148377;23;46290;-68
2022/11/13 12:36:04;;;;;;;3.15;1.60;;;19.80;66.40;;;;;;6148656;23;45333;-68
2022/11/13 12:38:39;;;;;;;2.63;1.60;;;19.80;66.30;;;;;;6150698;23;45382;-68
2022/11/13 12:41:16;;;;;;;2.42;1.63;;;19.80;66.10;;;;;;6152009;23;45323;-68
2022/11/13 12:43:56;;;;;;;1.98;1.50;;;19.80;66.10;;;;;;6152015;23;47058;-68
2022/11/13 12:46:34;;;;;;;1.92;1.17;;;19.80;66.00;;;;;;6152326;23;45270;-68
2022/11/13 12:49:16;;;;;;;2.17;1.23;;;19.80;65.90;;;;;;6151598;23;45218;-68
2022/11/13 12:51:54;;;;;;;2.78;1.42;;;19.80;65.90;;;;;;6151677;23;45411;-68
2022/11/13 12:54:26;;;;;;;1.90;1.33;;;19.80;65.60;;;;;;6151914;23;48025;-68
2022/11/13 12:57:20;;;;;;;2.58;1.33;;;19.80;65.70;;;;;;6149176;23;45995;-68
2022/11/13 12:59:49;;;;;;;1.52;1.17;;;19.80;65.90;;;;;;6147966;23;45353;-68